Portada
METAR-TAF:

METAR-TAF

Aeropuertos :

Air Force Base Langebaanweg

Langebaan, Sudáfrica

latitud: 32-58-08S, longitud: 018-09-55E, altitud: 33 m

Observación

El informe se hizo hace 1 hora y 4 minutos, a las 20:00 UTC
Viento 2 kt del sur
Temperatura 11°C
Humedad 76%
Presión 1025 hPa

METAR: FALW 262000Z AUTO 19002KT //// // ////// 11/07 Q1025

Hora: 23:04 (21:04 UTC)


TAF: falta

Observaciones y pronósticos meteorológicos de más de 4000 aeropuertos (mensajes METAR y TAF).

Los puntos amarillos y rojos representan las estaciones disponibles.

Ponga el ratón en el punto deseado para ver el nombre de la estación.

Haga clic para ver las observaciones y los pronósticos meteorológicos.

Para cambiar el mapa : haga clic en los botones verdes con una cruz de color negro para hacer un zoom, en el botón verde con un guión para alejar o en las flechas verdes para mapas adyacentes.


METAR-TAF: